createdAt,value
2022-11-25T00:01:31.785Z,5.03
2022-11-25T00:04:02.677Z,5.50
2022-11-25T00:06:33.413Z,5.90
2022-11-25T00:09:03.372Z,5.87
2022-11-25T00:11:31.098Z,5.30
2022-11-25T00:13:58.541Z,6.10
2022-11-25T00:16:26.812Z,6.00
2022-11-25T00:19:00.031Z,6.50
2022-11-25T00:21:32.676Z,6.43
2022-11-25T00:24:03.593Z,6.70
2022-11-25T00:26:32.827Z,5.57
2022-11-25T00:29:03.649Z,5.67
2022-11-25T00:31:35.113Z,5.27
2022-11-25T00:34:03.035Z,7.27
2022-11-25T00:36:36.631Z,6.90
2022-11-25T00:39:14.343Z,5.70
2022-11-25T00:42:02.757Z,6.73
2022-11-25T00:44:36.724Z,6.20
2022-11-25T00:47:18.942Z,6.77
2022-11-25T00:49:50.521Z,6.10
2022-11-25T00:52:21.364Z,6.30
2022-11-25T00:54:50.140Z,6.27
2022-11-25T00:57:19.801Z,5.87
2022-11-25T00:59:48.007Z,7.30
2022-11-25T01:02:17.292Z,6.90
2022-11-25T01:04:47.534Z,6.73
2022-11-25T01:07:17.162Z,6.57
2022-11-25T01:09:44.829Z,5.20
2022-11-25T01:12:11.938Z,5.37
2022-11-25T01:14:39.441Z,5.80
2022-11-25T01:17:06.546Z,6.13
2022-11-25T01:19:34.088Z,5.90
2022-11-25T01:22:01.180Z,5.37
2022-11-25T01:24:28.440Z,5.70
2022-11-25T01:26:56.069Z,5.43
2022-11-25T01:29:23.473Z,5.70
2022-11-25T01:31:56.721Z,5.40
2022-11-25T01:34:26.804Z,4.70
2022-11-25T01:36:57.421Z,6.20
2022-11-25T01:39:32.092Z,5.30
2022-11-25T01:42:01.465Z,4.10
2022-11-25T01:44:31.264Z,4.60
2022-11-25T01:47:15.862Z,5.80
2022-11-25T01:49:50.799Z,5.00
2022-11-25T01:52:42.786Z,4.30
2022-11-25T01:55:26.771Z,4.83
2022-11-25T01:58:10.373Z,4.63
2022-11-25T02:00:39.148Z,5.27
2022-11-25T02:03:07.231Z,4.90
2022-11-25T02:06:05.891Z,5.73
2022-11-25T02:08:33.697Z,4.50
2022-11-25T02:11:04.808Z,5.20
2022-11-25T02:13:33.865Z,4.90
2022-11-25T02:16:01.150Z,4.50
2022-11-25T02:18:28.542Z,4.83
2022-11-25T02:20:55.628Z,4.83
2022-11-25T02:24:22.114Z,4.90
2022-11-25T02:26:52.802Z,4.50
2022-11-25T02:29:22.640Z,4.20
2022-11-25T02:31:51.385Z,4.83
2022-11-25T02:34:18.596Z,4.80
2022-11-25T02:36:45.921Z,4.77
2022-11-25T02:39:13.439Z,3.73
2022-11-25T02:41:47.868Z,4.77
2022-11-25T02:44:15.427Z,4.80
2022-11-25T02:46:42.738Z,4.33
2022-11-25T02:49:10.492Z,4.20
2022-11-25T02:51:57.700Z,4.37
2022-11-25T02:54:24.941Z,4.30
2022-11-25T02:56:52.015Z,4.67
2022-11-25T02:59:18.959Z,3.80
2022-11-25T03:01:47.684Z,4.10
2022-11-25T03:04:14.735Z,3.90
2022-11-25T03:06:42.097Z,3.83
2022-11-25T03:09:09.735Z,4.13
2022-11-25T03:11:57.342Z,3.50
2022-11-25T03:14:24.416Z,3.43
2022-11-25T03:16:51.565Z,3.00
2022-11-25T03:19:18.541Z,3.20
2022-11-25T03:21:45.682Z,3.70
2022-11-25T03:24:12.647Z,3.23
2022-11-25T03:26:39.647Z,3.13
2022-11-25T03:29:08.391Z,4.13
2022-11-25T03:31:35.447Z,4.10
2022-11-25T03:34:02.753Z,3.27
2022-11-25T03:36:30.560Z,3.67
2022-11-25T03:38:57.689Z,4.00
2022-11-25T03:41:24.678Z,3.73
2022-11-25T03:43:51.690Z,4.27
2022-11-25T03:46:18.853Z,3.77
2022-11-25T03:48:46.984Z,4.17
2022-11-25T03:51:14.972Z,3.97
2022-11-25T03:53:42.988Z,4.03
2022-11-25T03:56:10.875Z,3.73
2022-11-25T03:58:38.003Z,3.77
2022-11-25T04:01:06.624Z,4.57
2022-11-25T04:03:34.072Z,4.37
2022-11-25T04:06:01.032Z,3.97
2022-11-25T04:08:29.838Z,3.50
2022-11-25T04:10:58.271Z,3.57
2022-11-25T04:13:29.340Z,3.10
2022-11-25T04:15:57.237Z,3.13
2022-11-25T04:18:25.611Z,3.30
2022-11-25T04:20:55.932Z,3.50
2022-11-25T04:23:24.544Z,3.50
2022-11-25T04:26:01.973Z,3.67
2022-11-25T04:28:36.622Z,3.23
2022-11-25T04:31:08.039Z,3.60
2022-11-25T04:33:37.975Z,3.87
2022-11-25T04:36:05.541Z,3.07
2022-11-25T04:38:32.848Z,4.03
2022-11-25T04:41:01.407Z,3.30
2022-11-25T04:43:31.849Z,3.40
2022-11-25T04:46:14.156Z,3.47
2022-11-25T04:48:44.308Z,3.43
2022-11-25T04:51:11.419Z,2.53
2022-11-25T04:53:39.592Z,4.30
2022-11-25T04:56:09.420Z,2.60
2022-11-25T04:59:00.986Z,3.00
2022-11-25T05:01:28.202Z,2.73
2022-11-25T05:04:08.545Z,3.70
2022-11-25T05:06:36.700Z,2.80
2022-11-25T05:09:04.856Z,2.30
2022-11-25T05:11:34.627Z,2.33
2022-11-25T05:14:01.985Z,2.07
2022-11-25T05:16:29.061Z,2.60
2022-11-25T05:18:56.831Z,2.10
2022-11-25T05:21:24.875Z,3.10
2022-11-25T05:23:55.724Z,1.90
2022-11-25T05:26:24.365Z,2.23
2022-11-25T05:28:54.569Z,2.50
2022-11-25T05:31:21.757Z,2.33
2022-11-25T05:33:49.252Z,1.90
2022-11-25T05:36:17.614Z,1.70
2022-11-25T05:38:47.337Z,2.37
2022-11-25T05:41:21.377Z,2.57
2022-11-25T05:43:48.526Z,2.53
2022-11-25T05:46:15.943Z,2.27
2022-11-25T05:48:47.862Z,2.70
2022-11-25T05:51:15.558Z,2.57
2022-11-25T05:53:42.681Z,2.37
2022-11-25T05:56:11.095Z,2.40
2022-11-25T05:59:02.589Z,2.80
2022-11-25T06:01:43.668Z,2.70
2022-11-25T06:04:11.564Z,2.93
2022-11-25T06:06:39.074Z,2.20
2022-11-25T06:09:06.365Z,2.60
2022-11-25T06:11:33.328Z,2.60
2022-11-25T06:14:00.591Z,2.40
2022-11-25T06:16:29.264Z,2.80
2022-11-25T06:19:08.218Z,2.73
2022-11-25T06:21:37.003Z,1.80
2022-11-25T06:24:04.606Z,2.73
2022-11-25T06:26:31.589Z,2.17
2022-11-25T06:28:58.808Z,2.10
2022-11-25T06:31:26.792Z,1.97
2022-11-25T06:34:03.126Z,1.70
2022-11-25T06:36:30.350Z,1.60
2022-11-25T06:38:57.332Z,1.63
2022-11-25T06:41:24.367Z,2.20
2022-11-25T06:43:51.709Z,2.00
2022-11-25T06:46:24.803Z,2.27
2022-11-25T06:48:53.498Z,2.10
2022-11-25T06:51:21.142Z,1.80
2022-11-25T06:53:48.444Z,1.90
2022-11-25T06:56:26.237Z,2.40
2022-11-25T06:58:55.411Z,2.40
2022-11-25T07:01:28.920Z,2.00
2022-11-25T07:04:05.195Z,1.87
2022-11-25T07:06:33.548Z,2.37
2022-11-25T07:09:01.902Z,2.43
2022-11-25T07:11:39.321Z,2.77
2022-11-25T07:14:12.204Z,2.17
2022-11-25T07:16:43.686Z,1.97
2022-11-25T07:19:14.532Z,2.50
2022-11-25T07:21:44.345Z,2.67
2022-11-25T07:24:17.450Z,2.80
2022-11-25T07:26:45.307Z,3.00
2022-11-25T07:32:09.982Z,2.33
2022-11-25T07:34:37.557Z,2.33
2022-11-25T07:37:04.544Z,2.57
2022-11-25T07:39:31.826Z,3.20
2022-11-25T07:41:58.744Z,2.83
2022-11-25T07:44:27.701Z,3.63
2022-11-25T07:47:11.116Z,2.70
2022-11-25T07:49:38.486Z,2.90
2022-11-25T07:52:06.417Z,2.70
2022-11-25T07:54:34.403Z,2.90
2022-11-25T07:57:01.626Z,3.83
2022-11-25T07:59:29.258Z,3.00
2022-11-25T08:01:56.568Z,2.67
2022-11-25T08:04:24.390Z,3.30
2022-11-25T08:06:52.798Z,2.70
2022-11-25T08:09:23.586Z,2.33
2022-11-25T08:11:51.574Z,2.97
2022-11-25T08:14:19.356Z,2.30
2022-11-25T08:16:47.495Z,3.00
2022-11-25T08:19:17.445Z,2.00
2022-11-25T08:21:48.025Z,2.40
2022-11-25T08:24:21.522Z,1.57
2022-11-25T08:26:49.223Z,1.97
2022-11-25T08:29:18.932Z,2.20
2022-11-25T08:31:46.557Z,2.50
2022-11-25T08:34:20.176Z,2.00
2022-11-25T08:36:50.552Z,2.10
2022-11-25T08:42:07.828Z,1.90
2022-11-25T08:44:36.495Z,1.93
2022-11-25T08:47:04.315Z,1.67
2022-11-25T08:49:36.230Z,1.60
2022-11-25T08:52:07.439Z,1.87
2022-11-25T08:54:34.368Z,2.03
2022-11-25T08:57:01.517Z,2.20
2022-11-25T08:59:29.556Z,2.13
2022-11-25T09:01:56.885Z,1.50
2022-11-25T09:04:23.930Z,1.90
2022-11-25T09:06:50.916Z,1.60
2022-11-25T09:09:17.839Z,1.60
2022-11-25T09:11:45.161Z,2.00
2022-11-25T09:14:12.351Z,1.60
2022-11-25T09:16:39.645Z,1.97
2022-11-25T09:19:07.041Z,1.93
2022-11-25T09:21:34.110Z,1.80
2022-11-25T09:24:01.197Z,1.77
2022-11-25T09:26:35.525Z,1.70
2022-11-25T09:29:03.198Z,1.90
2022-11-25T09:31:30.386Z,2.00
2022-11-25T09:33:57.543Z,1.53
2022-11-25T09:36:25.026Z,1.93
2022-11-25T09:38:52.460Z,1.90
2022-11-25T09:42:14.567Z,1.73
2022-11-25T09:45:22.688Z,1.97
2022-11-25T09:48:16.614Z,1.70
2022-11-25T09:51:20.600Z,1.53
2022-11-25T09:54:07.881Z,1.50
2022-11-25T09:57:02.464Z,1.70
2022-11-25T09:59:47.585Z,1.90
2022-11-25T10:02:56.152Z,1.87
2022-11-25T10:05:36.796Z,1.60
2022-11-25T10:08:19.460Z,1.20
2022-11-25T10:10:51.728Z,1.40
2022-11-25T10:13:31.780Z,1.33
2022-11-25T10:16:05.196Z,1.50
2022-11-25T10:18:43.671Z,1.07
2022-11-25T10:21:12.052Z,1.30
2022-11-25T10:23:40.000Z,1.53
2022-11-25T10:26:17.532Z,1.10
2022-11-25T10:29:14.619Z,1.43
2022-11-25T10:31:44.083Z,1.47
2022-11-25T10:34:40.694Z,1.30
2022-11-25T10:37:36.628Z,1.30
2022-11-25T10:40:05.198Z,1.30
2022-11-25T10:42:32.633Z,1.57
2022-11-25T10:44:59.664Z,1.60
2022-11-25T10:47:45.151Z,1.43
2022-11-25T10:50:52.791Z,1.20
2022-11-25T10:53:27.476Z,1.40
2022-11-25T10:56:19.329Z,1.37
2022-11-25T10:58:47.347Z,1.37
2022-11-25T11:01:25.669Z,1.83
2022-11-25T11:04:11.580Z,1.70
2022-11-25T11:06:43.362Z,1.80
2022-11-25T11:09:32.930Z,1.40
2022-11-25T11:12:23.043Z,1.43
2022-11-25T11:14:51.531Z,1.30
2022-11-25T11:17:37.129Z,1.70
2022-11-25T11:20:26.796Z,1.30
2022-11-25T11:23:10.331Z,1.03
2022-11-25T11:25:40.982Z,2.03
2022-11-25T11:28:39.593Z,1.60
2022-11-25T11:31:27.818Z,1.60
2022-11-25T11:34:29.675Z,1.97
2022-11-25T11:37:36.732Z,1.70
2022-11-25T11:40:46.683Z,2.13
2022-11-25T11:43:16.688Z,1.60
2022-11-25T11:46:33.656Z,2.00
2022-11-25T11:49:27.596Z,2.23
2022-11-25T11:52:34.696Z,2.20
2022-11-25T11:55:19.595Z,2.80
2022-11-25T11:58:13.908Z,2.23
2022-11-25T12:01:00.298Z,2.17
2022-11-25T12:03:29.504Z,2.53
2022-11-25T12:06:00.637Z,2.47
2022-11-25T12:08:33.637Z,2.27
2022-11-25T12:11:12.745Z,2.63
2022-11-25T12:14:16.322Z,3.23
2022-11-25T12:16:55.800Z,2.60
2022-11-25T12:19:50.219Z,2.90
2022-11-25T12:22:34.774Z,2.80
2022-11-25T12:25:34.730Z,2.47
2022-11-25T12:28:18.018Z,3.13
2022-11-25T12:31:22.212Z,2.87
2022-11-25T12:34:04.437Z,2.53
2022-11-25T12:36:38.409Z,3.03
2022-11-25T12:39:57.025Z,3.40
2022-11-25T12:42:26.407Z,3.33
2022-11-25T12:44:59.427Z,3.47
2022-11-25T12:47:27.728Z,3.60
2022-11-25T12:49:57.003Z,2.73
2022-11-25T12:52:53.539Z,2.23
2022-11-25T12:55:28.800Z,2.83
2022-11-25T12:58:29.480Z,2.83
2022-11-25T13:02:12.773Z,2.60
2022-11-25T13:05:07.626Z,2.53
2022-11-25T13:08:41.575Z,2.40
2022-11-25T13:11:43.640Z,2.80
2022-11-25T13:14:48.245Z,2.20
2022-11-25T13:17:16.769Z,1.77
2022-11-25T13:19:44.273Z,2.60
2022-11-25T13:22:29.563Z,1.60
2022-11-25T13:24:58.299Z,2.23
2022-11-25T13:27:42.523Z,1.70
2022-11-25T13:30:34.600Z,1.80
2022-11-25T13:33:14.167Z,1.57
2022-11-25T13:35:44.031Z,1.47
2022-11-25T13:38:30.874Z,2.40
2022-11-25T13:41:25.060Z,1.33
2022-11-25T13:44:01.682Z,1.60
2022-11-25T13:46:42.329Z,1.90
2022-11-25T13:49:33.059Z,2.83
2022-11-25T13:52:44.877Z,1.67
2022-11-25T13:55:17.887Z,1.40
2022-11-25T13:58:02.024Z,1.47
2022-11-25T14:00:56.591Z,1.60
2022-11-25T14:03:23.512Z,1.80
2022-11-25T14:06:38.207Z,1.80
2022-11-25T14:09:42.604Z,1.50
2022-11-25T14:12:33.846Z,1.87
2022-11-25T14:15:22.649Z,1.60
2022-11-25T14:18:17.673Z,3.00
2022-11-25T14:21:06.886Z,2.50
2022-11-25T14:24:22.159Z,1.80
2022-11-25T14:26:52.763Z,2.67
2022-11-25T14:29:46.506Z,2.27
2022-11-25T14:32:21.374Z,1.63
2022-11-25T14:35:11.219Z,3.03
2022-11-25T14:37:49.239Z,5.17
2022-11-25T14:40:27.415Z,4.40
2022-11-25T14:43:03.416Z,3.30
2022-11-25T14:45:34.307Z,2.87
2022-11-25T14:48:21.788Z,3.40
2022-11-25T14:51:02.060Z,3.87
2022-11-25T14:53:30.776Z,2.20
2022-11-25T14:56:00.698Z,2.67
2022-11-25T14:58:28.047Z,2.00
2022-11-25T15:00:58.072Z,2.40
2022-11-25T15:03:25.532Z,2.40
2022-11-25T15:06:01.226Z,3.57
2022-11-25T15:08:28.884Z,5.47
2022-11-25T15:10:59.766Z,4.23
2022-11-25T15:13:53.210Z,2.90
2022-11-25T15:16:31.942Z,3.70
2022-11-25T15:19:02.701Z,7.07
2022-11-25T15:22:00.046Z,9.70
2022-11-25T15:24:48.905Z,4.93
2022-11-25T15:27:28.612Z,7.20
2022-11-25T15:29:57.641Z,4.83
2022-11-25T15:32:31.926Z,4.50
2022-11-25T15:35:01.801Z,3.40
2022-11-25T15:37:29.670Z,4.37
2022-11-25T15:40:39.691Z,3.60
2022-11-25T15:43:23.812Z,3.17
2022-11-25T15:45:54.499Z,2.67
2022-11-25T15:48:38.877Z,2.60
2022-11-25T15:51:35.546Z,2.63
2022-11-25T15:54:18.962Z,3.03
2022-11-25T15:56:50.365Z,2.43
2022-11-25T15:59:45.884Z,2.50
2022-11-25T16:02:58.288Z,2.60
2022-11-25T16:05:28.063Z,2.43
2022-11-25T16:08:23.021Z,2.53
2022-11-25T16:10:54.826Z,2.87
2022-11-25T16:13:29.416Z,2.80
2022-11-25T16:16:14.905Z,2.07
2022-11-25T16:19:06.859Z,2.57
2022-11-25T16:21:36.823Z,2.23
2022-11-25T16:24:06.884Z,2.70
2022-11-25T16:26:40.025Z,2.60
2022-11-25T16:29:24.620Z,2.90
2022-11-25T16:31:51.657Z,3.43
2022-11-25T16:34:21.180Z,2.60
2022-11-25T16:36:48.391Z,2.40
2022-11-25T16:39:15.698Z,2.70
2022-11-25T16:41:46.176Z,3.07
2022-11-25T16:44:22.639Z,2.50
2022-11-25T16:46:50.104Z,2.43
2022-11-25T16:49:20.000Z,2.40
2022-11-25T16:51:49.846Z,2.60
2022-11-25T16:54:22.795Z,3.00
2022-11-25T16:56:54.858Z,2.83
2022-11-25T16:59:34.189Z,3.00
2022-11-25T17:02:01.999Z,3.20
2022-11-25T17:04:29.179Z,3.17
2022-11-25T17:07:24.644Z,3.47
2022-11-25T17:09:44.358Z,4.87
2022-11-25T17:12:20.823Z,3.60
2022-11-25T17:14:49.153Z,3.87
2022-11-25T17:17:25.059Z,3.73
2022-11-25T17:19:53.479Z,3.50
2022-11-25T17:22:24.977Z,3.13
2022-11-25T17:24:52.331Z,4.17
2022-11-25T17:27:31.100Z,3.90
2022-11-25T17:30:01.277Z,3.37
2022-11-25T17:32:28.583Z,3.80
2022-11-25T17:34:55.664Z,4.37
2022-11-25T17:37:24.751Z,2.60
2022-11-25T17:39:53.583Z,4.30
2022-11-25T17:42:31.913Z,4.10
2022-11-25T17:44:59.796Z,3.40
2022-11-25T17:47:26.828Z,2.70
2022-11-25T17:49:54.508Z,2.30
2022-11-25T17:52:21.752Z,3.53
2022-11-25T17:54:48.766Z,2.90
2022-11-25T17:57:21.313Z,2.63
2022-11-25T17:59:48.565Z,4.43
2022-11-25T18:02:22.260Z,3.60
2022-11-25T18:04:50.175Z,3.33
2022-11-25T18:07:18.043Z,4.90
2022-11-25T18:09:45.690Z,5.20
2022-11-25T18:12:28.606Z,5.10
2022-11-25T18:14:56.471Z,26.10
2022-11-25T18:17:23.434Z,8.40
2022-11-25T18:19:55.041Z,11.97
2022-11-25T18:22:24.018Z,10.27
2022-11-25T18:24:53.806Z,10.67
2022-11-25T18:27:28.608Z,9.63
2022-11-25T18:29:56.654Z,7.00
2022-11-25T18:32:24.841Z,6.67
2022-11-25T18:34:53.915Z,5.73
2022-11-25T18:37:21.561Z,5.37
2022-11-25T18:39:48.941Z,5.27
2022-11-25T18:42:27.256Z,4.97
2022-11-25T18:44:56.334Z,4.20
2022-11-25T18:47:23.581Z,3.90
2022-11-25T18:49:55.563Z,5.57
2022-11-25T18:52:25.047Z,4.63
2022-11-25T18:54:52.637Z,3.40
2022-11-25T18:57:19.845Z,4.23
2022-11-25T18:59:55.987Z,3.97
2022-11-25T19:02:27.152Z,4.20
2022-11-25T19:04:54.292Z,4.47
2022-11-25T19:07:21.294Z,3.63
2022-11-25T19:09:48.268Z,3.90
2022-11-25T19:12:19.495Z,3.67
2022-11-25T19:14:50.117Z,3.70
2022-11-25T19:17:24.195Z,4.37
2022-11-25T19:19:51.207Z,4.13
2022-11-25T19:22:19.050Z,3.50
2022-11-25T19:24:46.227Z,5.53
2022-11-25T19:27:24.949Z,5.13
2022-11-25T19:29:52.888Z,4.53
2022-11-25T19:32:25.998Z,4.90
2022-11-25T19:35:04.089Z,5.37
2022-11-25T19:37:31.847Z,4.50
2022-11-25T19:39:59.028Z,3.83
2022-11-25T19:42:28.219Z,5.63
2022-11-25T19:44:55.931Z,4.60
2022-11-25T19:47:25.763Z,4.60
2022-11-25T19:49:57.958Z,3.77
2022-11-25T19:52:35.867Z,4.03
2022-11-25T19:55:15.074Z,4.57
2022-11-25T19:57:42.749Z,4.30
2022-11-25T20:00:12.905Z,5.00
2022-11-25T20:02:41.934Z,4.87
2022-11-25T20:05:10.264Z,4.53
2022-11-25T20:07:38.155Z,4.97
2022-11-25T20:10:16.636Z,4.80
2022-11-25T20:12:46.385Z,4.40
2022-11-25T20:15:13.446Z,5.77
2022-11-25T20:17:46.265Z,5.23
2022-11-25T20:20:23.633Z,4.50
2022-11-25T20:23:10.543Z,4.20
2022-11-25T20:25:48.456Z,5.57
2022-11-25T20:28:30.136Z,6.40
2022-11-25T20:30:59.304Z,4.57
2022-11-25T20:33:27.580Z,5.17
2022-11-25T20:36:07.292Z,5.60
2022-11-25T20:38:36.124Z,6.00
2022-11-25T20:41:04.303Z,5.77
2022-11-25T20:43:32.400Z,7.57
2022-11-25T20:46:02.036Z,6.70
2022-11-25T20:48:30.140Z,8.60
2022-11-25T20:51:01.482Z,6.80
2022-11-25T20:53:32.093Z,6.33
2022-11-25T20:56:00.429Z,6.00
2022-11-25T20:58:32.186Z,6.50
2022-11-25T21:00:59.634Z,6.20
2022-11-25T21:03:27.484Z,7.17
2022-11-25T21:05:55.417Z,6.60
2022-11-25T21:08:27.503Z,4.77
2022-11-25T21:10:56.747Z,5.47
2022-11-25T21:13:29.645Z,5.47
2022-11-25T21:15:57.586Z,5.77
2022-11-25T21:18:25.661Z,5.70
2022-11-25T21:20:55.645Z,7.37
2022-11-25T21:23:32.470Z,6.83
2022-11-25T21:26:22.912Z,6.90
2022-11-25T21:28:53.107Z,6.70
2022-11-25T21:31:24.995Z,6.40
2022-11-25T21:33:57.791Z,5.97
2022-11-25T21:36:30.789Z,7.07
2022-11-25T21:39:22.974Z,6.30
2022-11-25T21:41:50.025Z,6.40
2022-11-25T21:44:34.860Z,6.30
2022-11-25T21:47:02.978Z,4.90
2022-11-25T21:49:30.065Z,4.50
2022-11-25T21:51:57.133Z,5.60
2022-11-25T21:54:24.094Z,5.00
2022-11-25T21:56:52.296Z,4.63
2022-11-25T21:59:20.604Z,4.97
2022-11-25T22:01:48.202Z,4.73
2022-11-25T22:04:19.544Z,4.30
2022-11-25T22:06:48.150Z,4.77
2022-11-25T22:09:15.195Z,4.37
2022-11-25T22:11:50.486Z,4.80
2022-11-25T22:14:34.794Z,4.37
2022-11-25T22:17:06.156Z,4.83
2022-11-25T22:19:33.750Z,4.50
2022-11-25T22:22:00.710Z,3.60
2022-11-25T22:24:32.501Z,4.37
2022-11-25T22:26:59.505Z,5.30
2022-11-25T22:29:34.542Z,4.53
2022-11-25T22:32:08.191Z,6.77
2022-11-25T22:34:37.053Z,8.27
2022-11-25T22:37:04.323Z,8.57
2022-11-25T22:39:31.202Z,8.10
2022-11-25T22:42:09.649Z,6.00
2022-11-25T22:44:43.167Z,5.20
2022-11-25T22:47:45.997Z,4.60
2022-11-25T22:50:25.966Z,4.33
2022-11-25T22:52:54.518Z,4.83
2022-11-25T22:55:25.476Z,5.27
2022-11-25T22:57:55.591Z,5.43
2022-11-25T23:00:31.086Z,5.20
2022-11-25T23:03:00.474Z,4.30
2022-11-25T23:05:33.505Z,4.33
2022-11-25T23:08:25.129Z,4.20
2022-11-25T23:10:52.826Z,4.77
2022-11-25T23:13:20.583Z,4.23
2022-11-25T23:16:00.753Z,4.10
2022-11-25T23:18:42.738Z,3.50
2022-11-25T23:21:27.866Z,3.97
2022-11-25T23:23:55.836Z,3.40
2022-11-25T23:26:23.472Z,3.63
2022-11-25T23:28:50.526Z,3.53
2022-11-25T23:31:18.278Z,2.97
2022-11-25T23:33:50.574Z,3.20
2022-11-25T23:36:47.375Z,4.37
2022-11-25T23:39:23.506Z,3.60
2022-11-25T23:41:51.877Z,3.73
2022-11-25T23:44:39.232Z,3.50
2022-11-25T23:47:13.820Z,3.30
2022-11-25T23:49:44.634Z,3.30
2022-11-25T23:52:19.323Z,4.40
2022-11-25T23:54:47.872Z,3.50
2022-11-25T23:57:26.752Z,4.13
2022-11-25T23:59:54.198Z,5.03
